sensor_id;sensor_type;location;lat;lon;timestamp;temperature;humidity
4183;DHT22;2105;52.300;9.182;2022-09-27T03:29:20;10.60;99.90
4183;DHT22;2105;52.300;9.182;2022-09-27T03:31:46;10.50;99.90
4183;DHT22;2105;52.300;9.182;2022-09-27T03:34:13;10.40;99.90
4183;DHT22;2105;52.300;9.182;2022-09-27T03:36:40;10.40;99.90
4183;DHT22;2105;52.300;9.182;2022-09-27T03:39:07;10.40;99.90
4183;DHT22;2105;52.300;9.182;2022-09-27T03:41:33;10.40;99.90
4183;DHT22;2105;52.300;9.182;2022-09-27T03:44:00;10.40;99.90
4183;DHT22;2105;52.300;9.182;2022-09-27T03:46:28;10.40;99.90
4183;DHT22;2105;52.300;9.182;2022-09-27T03:48:55;10.40;99.90
4183;DHT22;2105;52.300;9.182;2022-09-27T03:51:21;10.30;99.90
4183;DHT22;2105;52.300;9.182;2022-09-27T03:53:48;10.30;99.90
4183;DHT22;2105;52.300;9.182;2022-09-27T03:56:15;10.30;99.90
4183;DHT22;2105;52.300;9.182;2022-09-27T03:58:42;10.30;99.90
4183;DHT22;2105;52.300;9.182;2022-09-27T04:01:09;10.30;99.90
4183;DHT22;2105;52.300;9.182;2022-09-27T04:03:36;10.30;99.90
4183;DHT22;2105;52.300;9.182;2022-09-27T04:06:04;10.30;99.90
4183;DHT22;2105;52.300;9.182;2022-09-27T04:08:30;10.30;99.90
4183;DHT22;2105;52.300;9.182;2022-09-27T04:10:57;10.30;99.90
4183;DHT22;2105;52.300;9.182;2022-09-27T04:13:23;10.30;99.90
4183;DHT22;2105;52.300;9.182;2022-09-27T04:15:50;10.30;99.90
4183;DHT22;2105;52.300;9.182;2022-09-27T04:18:17;10.30;99.90
4183;DHT22;2105;52.300;9.182;2022-09-27T04:20:45;10.20;99.90
4183;DHT22;2105;52.300;9.182;2022-09-27T04:23:12;10.20;99.90
4183;DHT22;2105;52.300;9.182;2022-09-27T04:25:38;10.20;99.90
4183;DHT22;2105;52.300;9.182;2022-09-27T04:28:05;10.20;99.90
4183;DHT22;2105;52.300;9.182;2022-09-27T04:30:32;10.20;99.90
4183;DHT22;2105;52.300;9.182;2022-09-27T04:32:58;10.20;99.90
4183;DHT22;2105;52.300;9.182;2022-09-27T04:35:25;10.20;99.90
4183;DHT22;2105;52.300;9.182;2022-09-27T04:38:10;10.20;99.90
4183;DHT22;2105;52.300;9.182;2022-09-27T04:40:37;10.20;99.90
4183;DHT22;2105;52.300;9.182;2022-09-27T04:43:04;10.30;99.90
4183;DHT22;2105;52.300;9.182;2022-09-27T04:45:31;10.20;99.90
4183;DHT22;2105;52.300;9.182;2022-09-27T04:47:58;10.20;99.90
4183;DHT22;2105;52.300;9.182;2022-09-27T04:50:24;10.20;99.90
4183;DHT22;2105;52.300;9.182;2022-09-27T04:52:52;10.20;99.90
4183;DHT22;2105;52.300;9.182;2022-09-27T04:55:20;10.20;99.90
4183;DHT22;2105;52.300;9.182;2022-09-27T04:57:48;10.20;99.90
4183;DHT22;2105;52.300;9.182;2022-09-27T05:00:15;10.20;99.90
4183;DHT22;2105;52.300;9.182;2022-09-27T05:02:42;10.20;99.90
4183;DHT22;2105;52.300;9.182;2022-09-27T05:05:09;10.20;99.90
4183;DHT22;2105;52.300;9.182;2022-09-27T05:07:37;10.10;99.90
4183;DHT22;2105;52.300;9.182;2022-09-27T05:10:04;10.10;99.90
4183;DHT22;2105;52.300;9.182;2022-09-27T05:12:32;10.00;99.90
4183;DHT22;2105;52.300;9.182;2022-09-27T05:14:59;10.00;99.90
4183;DHT22;2105;52.300;9.182;2022-09-27T05:17:26;10.00;99.90
4183;DHT22;2105;52.300;9.182;2022-09-27T05:19:52;10.00;99.90
4183;DHT22;2105;52.300;9.182;2022-09-27T05:22:19;10.00;99.90
4183;DHT22;2105;52.300;9.182;2022-09-27T05:24:46;10.10;99.90
4183;DHT22;2105;52.300;9.182;2022-09-27T05:27:14;10.10;99.90
4183;DHT22;2105;52.300;9.182;2022-09-27T05:29:42;10.00;99.90
4183;DHT22;2105;52.300;9.182;2022-09-27T05:32:09;10.00;99.90
4183;DHT22;2105;52.300;9.182;2022-09-27T05:34:36;10.00;99.90
4183;DHT22;2105;52.300;9.182;2022-09-27T05:37:02;10.00;99.90
4183;DHT22;2105;52.300;9.182;2022-09-27T05:39:29;10.00;99.90
4183;DHT22;2105;52.300;9.182;2022-09-27T05:41:55;9.90;99.90
4183;DHT22;2105;52.300;9.182;2022-09-27T05:44:22;9.90;99.90
4183;DHT22;2105;52.300;9.182;2022-09-27T05:46:51;9.90;99.90
4183;DHT22;2105;52.300;9.182;2022-09-27T05:49:18;9.90;99.90
4183;DHT22;2105;52.300;9.182;2022-09-27T05:51:45;9.90;99.90
4183;DHT22;2105;52.300;9.182;2022-09-27T05:54:12;9.90;99.90
4183;DHT22;2105;52.300;9.182;2022-09-27T05:56:38;9.90;99.90
4183;DHT22;2105;52.300;9.182;2022-09-27T05:59:05;9.90;99.90
4183;DHT22;2105;52.300;9.182;2022-09-27T06:01:31;9.90;99.90
4183;DHT22;2105;52.300;9.182;2022-09-27T06:04:01;10.00;99.90
4183;DHT22;2105;52.300;9.182;2022-09-27T06:06:29;10.00;99.90
4183;DHT22;2105;52.300;9.182;2022-09-27T06:08:55;10.00;99.90
4183;DHT22;2105;52.300;9.182;2022-09-27T06:11:25;10.00;99.90
4183;DHT22;2105;52.300;9.182;2022-09-27T06:13:52;10.00;99.90
4183;DHT22;2105;52.300;9.182;2022-09-27T06:16:18;10.00;99.90
4183;DHT22;2105;52.300;9.182;2022-09-27T06:18:45;10.00;99.90
4183;DHT22;2105;52.300;9.182;2022-09-27T06:21:13;9.90;99.90
4183;DHT22;2105;52.300;9.182;2022-09-27T06:23:40;9.90;99.90
4183;DHT22;2105;52.300;9.182;2022-09-27T06:26:06;10.00;99.90
4183;DHT22;2105;52.300;9.182;2022-09-27T06:28:33;10.00;99.90
4183;DHT22;2105;52.300;9.182;2022-09-27T06:31:00;9.90;99.90
4183;DHT22;2105;52.300;9.182;2022-09-27T06:33:27;9.90;99.90
4183;DHT22;2105;52.300;9.182;2022-09-27T06:35:53;9.90;99.90
4183;DHT22;2105;52.300;9.182;2022-09-27T06:38:22;9.90;99.90
4183;DHT22;2105;52.300;9.182;2022-09-27T06:40:50;9.90;99.90
4183;DHT22;2105;52.300;9.182;2022-09-27T06:43:19;9.80;99.90
4183;DHT22;2105;52.300;9.182;2022-09-27T06:45:46;9.80;99.90
4183;DHT22;2105;52.300;9.182;2022-09-27T06:48:14;9.80;99.90
4183;DHT22;2105;52.300;9.182;2022-09-27T06:50:42;9.80;99.90
4183;DHT22;2105;52.300;9.182;2022-09-27T06:53:10;9.70;99.90
4183;DHT22;2105;52.300;9.182;2022-09-27T06:55:39;9.70;99.90
4183;DHT22;2105;52.300;9.182;2022-09-27T06:58:06;9.70;99.90
4183;DHT22;2105;52.300;9.182;2022-09-27T07:00:51;9.70;99.90
4183;DHT22;2105;52.300;9.182;2022-09-27T07:03:18;9.70;99.90
4183;DHT22;2105;52.300;9.182;2022-09-27T07:05:53;9.70;99.90
4183;DHT22;2105;52.300;9.182;2022-09-27T07:08:21;9.70;99.90
4183;DHT22;2105;52.300;9.182;2022-09-27T07:10:50;9.80;99.90
4183;DHT22;2105;52.300;9.182;2022-09-27T07:13:17;9.80;99.90
4183;DHT22;2105;52.300;9.182;2022-09-27T07:15:44;9.80;99.90
4183;DHT22;2105;52.300;9.182;2022-09-27T07:18:10;9.80;99.90
4183;DHT22;2105;52.300;9.182;2022-09-27T07:20:37;9.80;99.90
4183;DHT22;2105;52.300;9.182;2022-09-27T07:23:04;9.80;99.90
4183;DHT22;2105;52.300;9.182;2022-09-27T07:25:32;9.90;99.90
4183;DHT22;2105;52.300;9.182;2022-09-27T07:28:02;10.00;99.90
4183;DHT22;2105;52.300;9.182;2022-09-27T07:30:29;10.00;99.90
4183;DHT22;2105;52.300;9.182;2022-09-27T07:32:56;10.00;99.90
4183;DHT22;2105;52.300;9.182;2022-09-27T07:35:24;10.00;99.90
4183;DHT22;2105;52.300;9.182;2022-09-27T07:37:51;10.10;99.90
4183;DHT22;2105;52.300;9.182;2022-09-27T07:40:18;10.10;99.90
4183;DHT22;2105;52.300;9.182;2022-09-27T07:42:45;10.10;99.90
4183;DHT22;2105;52.300;9.182;2022-09-27T07:45:13;10.10;99.90
4183;DHT22;2105;52.300;9.182;2022-09-27T07:47:40;10.10;99.90
4183;DHT22;2105;52.300;9.182;2022-09-27T07:50:08;10.10;99.90
4183;DHT22;2105;52.300;9.182;2022-09-27T07:52:38;10.10;99.90
4183;DHT22;2105;52.300;9.182;2022-09-27T07:55:06;10.10;99.90
4183;DHT22;2105;52.300;9.182;2022-09-27T07:57:33;10.10;99.90
4183;DHT22;2105;52.300;9.182;2022-09-27T08:00:01;10.10;99.90
4183;DHT22;2105;52.300;9.182;2022-09-27T08:02:29;10.20;99.90
4183;DHT22;2105;52.300;9.182;2022-09-27T08:04:57;10.10;99.90
4183;DHT22;2105;52.300;9.182;2022-09-27T08:07:23;10.10;99.90
4183;DHT22;2105;52.300;9.182;2022-09-27T08:09:50;10.20;99.90
4183;DHT22;2105;52.300;9.182;2022-09-27T08:12:17;10.20;99.90
4183;DHT22;2105;52.300;9.182;2022-09-27T08:14:45;10.20;99.90
4183;DHT22;2105;52.300;9.182;2022-09-27T08:17:12;10.20;99.90
4183;DHT22;2105;52.300;9.182;2022-09-27T08:19:41;10.20;99.90
4183;DHT22;2105;52.300;9.182;2022-09-27T08:22:09;10.20;99.90
4183;DHT22;2105;52.300;9.182;2022-09-27T08:24:36;10.20;99.90
4183;DHT22;2105;52.300;9.182;2022-09-27T08:27:03;10.30;99.90
4183;DHT22;2105;52.300;9.182;2022-09-27T08:29:30;10.30;99.90
4183;DHT22;2105;52.300;9.182;2022-09-27T08:31:56;10.30;99.90
4183;DHT22;2105;52.300;9.182;2022-09-27T08:34:23;10.30;99.90
4183;DHT22;2105;52.300;9.182;2022-09-27T08:36:51;10.50;99.90
4183;DHT22;2105;52.300;9.182;2022-09-27T08:39:17;10.60;99.90
4183;DHT22;2105;52.300;9.182;2022-09-27T08:41:48;10.50;99.90
4183;DHT22;2105;52.300;9.182;2022-09-27T08:44:23;10.50;99.90
4183;DHT22;2105;52.300;9.182;2022-09-27T08:46:57;10.50;99.90
4183;DHT22;2105;52.300;9.182;2022-09-27T08:49:30;10.50;99.90
4183;DHT22;2105;52.300;9.182;2022-09-27T08:52:00;10.50;99.90
4183;DHT22;2105;52.300;9.182;2022-09-27T08:54:30;10.60;99.90
4183;DHT22;2105;52.300;9.182;2022-09-27T08:57:03;10.60;99.90
4183;DHT22;2105;52.300;9.182;2022-09-27T08:59:34;10.70;99.90
4183;DHT22;2105;52.300;9.182;2022-09-27T09:02:04;10.70;99.90
4183;DHT22;2105;52.300;9.182;2022-09-27T09:04:34;10.70;99.90
4183;DHT22;2105;52.300;9.182;2022-09-27T09:07:08;10.70;99.90
4183;DHT22;2105;52.300;9.182;2022-09-27T09:09:46;10.70;99.90
4183;DHT22;2105;52.300;9.182;2022-09-27T09:12:27;10.70;99.90
4183;DHT22;2105;52.300;9.182;2022-09-27T09:15:29;10.80;99.90
4183;DHT22;2105;52.300;9.182;2022-09-27T09:18:13;11.00;99.90
4183;DHT22;2105;52.300;9.182;2022-09-27T09:20:56;11.10;99.90
4183;DHT22;2105;52.300;9.182;2022-09-27T09:23:41;11.30;99.90
4183;DHT22;2105;52.300;9.182;2022-09-27T09:26:18;11.50;1.00
4183;DHT22;2105;52.300;9.182;2022-09-27T09:28:55;11.70;1.00
4183;DHT22;2105;52.300;9.182;2022-09-27T12:57:21;10.70;99.90
4183;DHT22;2105;52.300;9.182;2022-09-27T12:59:59;10.70;99.90
4183;DHT22;2105;52.300;9.182;2022-09-27T13:03:14;10.70;99.90
4183;DHT22;2105;52.300;9.182;2022-09-27T13:09:01;10.60;99.90
4183;DHT22;2105;52.300;9.182;2022-09-27T13:11:41;10.50;99.90
4183;DHT22;2105;52.300;9.182;2022-09-27T13:14:15;10.40;99.90
4183;DHT22;2105;52.300;9.182;2022-09-27T13:16:43;10.40;99.90
4183;DHT22;2105;52.300;9.182;2022-09-27T13:19:37;10.40;99.90
4183;DHT22;2105;52.300;9.182;2022-09-27T13:22:04;10.50;99.90
4183;DHT22;2105;52.300;9.182;2022-09-27T13:24:47;10.50;99.90
4183;DHT22;2105;52.300;9.182;2022-09-27T13:27:35;10.60;99.90
4183;DHT22;2105;52.300;9.182;2022-09-27T13:33:41;10.60;99.90
4183;DHT22;2105;52.300;9.182;2022-09-27T13:36:19;10.70;99.90
4183;DHT22;2105;52.300;9.182;2022-09-27T13:38:58;10.80;99.90
4183;DHT22;2105;52.300;9.182;2022-09-27T13:41:37;10.70;99.90
4183;DHT22;2105;52.300;9.182;2022-09-27T13:44:10;10.80;99.90
4183;DHT22;2105;52.300;9.182;2022-09-27T13:46:45;10.90;99.90
4183;DHT22;2105;52.300;9.182;2022-09-27T13:49:20;10.80;99.90
4183;DHT22;2105;52.300;9.182;2022-09-27T13:51:51;10.70;99.90
4183;DHT22;2105;52.300;9.182;2022-09-27T13:54:38;10.60;99.90
4183;DHT22;2105;52.300;9.182;2022-09-27T13:57:40;10.50;99.90
4183;DHT22;2105;52.300;9.182;2022-09-27T14:00:12;10.30;99.90
4183;DHT22;2105;52.300;9.182;2022-09-27T14:02:50;9.60;99.90
4183;DHT22;2105;52.300;9.182;2022-09-27T14:05:23;9.20;99.90
4183;DHT22;2105;52.300;9.182;2022-09-27T14:07:51;9.00;99.90
4183;DHT22;2105;52.300;9.182;2022-09-27T14:10:20;8.90;99.90
4183;DHT22;2105;52.300;9.182;2022-09-27T14:12:50;8.90;99.90
4183;DHT22;2105;52.300;9.182;2022-09-27T14:15:20;8.80;99.90
4183;DHT22;2105;52.300;9.182;2022-09-27T14:17:48;8.70;99.90
4183;DHT22;2105;52.300;9.182;2022-09-27T14:20:36;8.70;99.90
4183;DHT22;2105;52.300;9.182;2022-09-27T14:23:05;8.80;99.90
4183;DHT22;2105;52.300;9.182;2022-09-27T14:25:32;8.80;99.90
4183;DHT22;2105;52.300;9.182;2022-09-27T14:27:59;8.80;99.90
4183;DHT22;2105;52.300;9.182;2022-09-27T14:30:28;8.80;99.90
4183;DHT22;2105;52.300;9.182;2022-09-27T14:32:56;8.80;99.90
4183;DHT22;2105;52.300;9.182;2022-09-27T14:35:25;8.80;99.90
4183;DHT22;2105;52.300;9.182;2022-09-27T14:38:13;8.90;99.90
4183;DHT22;2105;52.300;9.182;2022-09-27T14:40:42;9.00;99.90
4183;DHT22;2105;52.300;9.182;2022-09-27T14:43:14;9.10;99.90
4183;DHT22;2105;52.300;9.182;2022-09-27T14:45:42;9.10;99.90
4183;DHT22;2105;52.300;9.182;2022-09-27T14:48:20;9.10;99.90
4183;DHT22;2105;52.300;9.182;2022-09-27T14:50:53;9.20;99.90
4183;DHT22;2105;52.300;9.182;2022-09-27T14:53:23;9.30;99.90
4183;DHT22;2105;52.300;9.182;2022-09-27T14:55:51;9.40;99.90
4183;DHT22;2105;52.300;9.182;2022-09-27T14:58:19;9.50;99.90
4183;DHT22;2105;52.300;9.182;2022-09-27T15:00:47;9.60;99.90
4183;DHT22;2105;52.300;9.182;2022-09-27T15:03:20;9.60;99.90
4183;DHT22;2105;52.300;9.182;2022-09-27T15:05:50;9.60;99.90
4183;DHT22;2105;52.300;9.182;2022-09-27T15:08:18;9.70;99.90
4183;DHT22;2105;52.300;9.182;2022-09-27T15:10:46;9.70;99.90
4183;DHT22;2105;52.300;9.182;2022-09-27T15:13:15;9.90;99.90
4183;DHT22;2105;52.300;9.182;2022-09-27T15:15:44;10.10;99.90
4183;DHT22;2105;52.300;9.182;2022-09-27T15:18:33;10.20;99.90
4183;DHT22;2105;52.300;9.182;2022-09-27T15:21:04;10.30;99.90
4183;DHT22;2105;52.300;9.182;2022-09-27T15:26:06;10.50;99.90
4183;DHT22;2105;52.300;9.182;2022-09-27T15:28:34;10.60;99.90
4183;DHT22;2105;52.300;9.182;2022-09-27T15:31:03;10.60;99.90
4183;DHT22;2105;52.300;9.182;2022-09-27T15:33:32;10.60;99.90
4183;DHT22;2105;52.300;9.182;2022-09-27T15:36:02;10.70;99.90
4183;DHT22;2105;52.300;9.182;2022-09-27T15:38:30;10.70;99.90
4183;DHT22;2105;52.300;9.182;2022-09-27T15:41:00;10.80;99.90
4183;DHT22;2105;52.300;9.182;2022-09-27T15:43:30;10.80;99.90
4183;DHT22;2105;52.300;9.182;2022-09-27T15:45:59;10.80;99.90
4183;DHT22;2105;52.300;9.182;2022-09-27T15:48:28;10.90;99.90
4183;DHT22;2105;52.300;9.182;2022-09-27T15:50:55;11.00;99.90
4183;DHT22;2105;52.300;9.182;2022-09-27T15:53:40;11.10;99.90
4183;DHT22;2105;52.300;9.182;2022-09-27T15:56:12;11.10;99.90
4183;DHT22;2105;52.300;9.182;2022-09-27T15:58:41;11.10;99.90
4183;DHT22;2105;52.300;9.182;2022-09-27T16:01:18;11.00;99.90
4183;DHT22;2105;52.300;9.182;2022-09-27T16:03:46;11.00;99.90
4183;DHT22;2105;52.300;9.182;2022-09-27T16:06:14;10.90;99.90
4183;DHT22;2105;52.300;9.182;2022-09-27T16:08:41;10.90;99.90
4183;DHT22;2105;52.300;9.182;2022-09-27T16:11:12;10.90;99.90
4183;DHT22;2105;52.300;9.182;2022-09-27T16:13:41;10.80;99.90
4183;DHT22;2105;52.300;9.182;2022-09-27T16:16:13;10.70;99.90
4183;DHT22;2105;52.300;9.182;2022-09-27T16:18:40;10.70;99.90
4183;DHT22;2105;52.300;9.182;2022-09-27T16:21:07;10.70;99.90
4183;DHT22;2105;52.300;9.182;2022-09-27T16:23:34;10.70;99.90
4183;DHT22;2105;52.300;9.182;2022-09-27T16:26:00;10.60;99.90
4183;DHT22;2105;52.300;9.182;2022-09-27T16:28:27;10.60;99.90
4183;DHT22;2105;52.300;9.182;2022-09-27T16:31:00;10.50;99.90
4183;DHT22;2105;52.300;9.182;2022-09-27T16:33:28;10.40;99.90
4183;DHT22;2105;52.300;9.182;2022-09-27T16:35:55;10.30;99.90
4183;DHT22;2105;52.300;9.182;2022-09-27T16:38:22;10.30;99.90
4183;DHT22;2105;52.300;9.182;2022-09-27T16:40:50;10.30;99.90
4183;DHT22;2105;52.300;9.182;2022-09-27T16:43:17;10.20;99.90
4183;DHT22;2105;52.300;9.182;2022-09-27T16:45:44;10.10;99.90
4183;DHT22;2105;52.300;9.182;2022-09-27T16:48:12;10.10;99.90
4183;DHT22;2105;52.300;9.182;2022-09-27T16:50:38;10.00;99.90
4183;DHT22;2105;52.300;9.182;2022-09-27T16:53:23;10.00;99.90
4183;DHT22;2105;52.300;9.182;2022-09-27T16:55:50;9.90;99.90
4183;DHT22;2105;52.300;9.182;2022-09-27T16:58:16;9.90;99.90
4183;DHT22;2105;52.300;9.182;2022-09-27T17:00:43;9.90;99.90
4183;DHT22;2105;52.300;9.182;2022-09-27T17:03:11;9.80;99.90
4183;DHT22;2105;52.300;9.182;2022-09-27T17:05:38;9.80;99.90
4183;DHT22;2105;52.300;9.182;2022-09-27T17:08:04;9.90;99.90
4183;DHT22;2105;52.300;9.182;2022-09-27T17:10:31;9.80;99.90
4183;DHT22;2105;52.300;9.182;2022-09-27T17:13:00;9.80;99.90
4183;DHT22;2105;52.300;9.182;2022-09-27T17:15:26;9.80;99.90
4183;DHT22;2105;52.300;9.182;2022-09-27T17:17:53;9.80;99.90
4183;DHT22;2105;52.300;9.182;2022-09-27T17:20:21;9.80;99.90
4183;DHT22;2105;52.300;9.182;2022-09-27T17:22:48;9.80;99.90
4183;DHT22;2105;52.300;9.182;2022-09-27T17:25:15;9.70;99.90
4183;DHT22;2105;52.300;9.182;2022-09-27T17:27:41;9.70;99.90
4183;DHT22;2105;52.300;9.182;2022-09-27T17:30:09;9.70;99.90
4183;DHT22;2105;52.300;9.182;2022-09-27T17:32:36;9.70;99.90
4183;DHT22;2105;52.300;9.182;2022-09-27T17:35:04;9.70;99.90
4183;DHT22;2105;52.300;9.182;2022-09-27T17:37:32;9.70;99.90
4183;DHT22;2105;52.300;9.182;2022-09-27T17:39:58;9.70;99.90
4183;DHT22;2105;52.300;9.182;2022-09-27T17:42:25;9.70;99.90
4183;DHT22;2105;52.300;9.182;2022-09-27T17:44:53;9.70;99.90
4183;DHT22;2105;52.300;9.182;2022-09-27T17:47:19;9.70;99.90
4183;DHT22;2105;52.300;9.182;2022-09-27T17:50:04;9.80;99.90
4183;DHT22;2105;52.300;9.182;2022-09-27T17:52:50;9.80;99.90
4183;DHT22;2105;52.300;9.182;2022-09-27T17:55:17;9.80;99.90
4183;DHT22;2105;52.300;9.182;2022-09-27T17:57:45;9.80;99.90
4183;DHT22;2105;52.300;9.182;2022-09-27T18:00:12;9.80;99.90
4183;DHT22;2105;52.300;9.182;2022-09-27T18:02:39;9.80;99.90
4183;DHT22;2105;52.300;9.182;2022-09-27T18:05:06;9.80;99.90
4183;DHT22;2105;52.300;9.182;2022-09-27T18:07:33;9.80;99.90
4183;DHT22;2105;52.300;9.182;2022-09-27T18:10:02;9.80;99.90
4183;DHT22;2105;52.300;9.182;2022-09-27T18:12:29;9.80;99.90
4183;DHT22;2105;52.300;9.182;2022-09-27T18:14:57;9.70;99.90
4183;DHT22;2105;52.300;9.182;2022-09-27T18:17:24;9.70;99.90
4183;DHT22;2105;52.300;9.182;2022-09-27T18:19:52;9.70;99.90
4183;DHT22;2105;52.300;9.182;2022-09-27T18:22:21;9.70;99.90
4183;DHT22;2105;52.300;9.182;2022-09-27T18:24:49;9.70;99.90
4183;DHT22;2105;52.300;9.182;2022-09-27T18:27:17;9.70;99.90
4183;DHT22;2105;52.300;9.182;2022-09-27T18:29:44;9.70;99.90
4183;DHT22;2105;52.300;9.182;2022-09-27T18:32:11;9.70;99.90
4183;DHT22;2105;52.300;9.182;2022-09-27T18:34:37;9.70;99.90
4183;DHT22;2105;52.300;9.182;2022-09-27T18:37:04;9.70;99.90
4183;DHT22;2105;52.300;9.182;2022-09-27T18:39:31;9.70;99.90
4183;DHT22;2105;52.300;9.182;2022-09-27T18:41:57;9.70;99.90
4183;DHT22;2105;52.300;9.182;2022-09-27T18:44:26;9.70;99.90
4183;DHT22;2105;52.300;9.182;2022-09-27T18:46:52;9.70;99.90
4183;DHT22;2105;52.300;9.182;2022-09-27T18:49:19;9.70;99.90
4183;DHT22;2105;52.300;9.182;2022-09-27T18:51:46;9.70;99.90
4183;DHT22;2105;52.300;9.182;2022-09-27T18:54:15;9.80;99.90
4183;DHT22;2105;52.300;9.182;2022-09-27T18:56:43;9.70;99.90
4183;DHT22;2105;52.300;9.182;2022-09-27T18:59:09;9.70;99.90
4183;DHT22;2105;52.300;9.182;2022-09-27T19:01:39;9.80;99.90
4183;DHT22;2105;52.300;9.182;2022-09-27T19:04:10;9.80;99.90
4183;DHT22;2105;52.300;9.182;2022-09-27T19:06:38;9.80;99.90
4183;DHT22;2105;52.300;9.182;2022-09-27T19:09:06;9.80;99.90
4183;DHT22;2105;52.300;9.182;2022-09-27T19:11:35;9.80;99.90
4183;DHT22;2105;52.300;9.182;2022-09-27T19:14:02;9.80;99.90
4183;DHT22;2105;52.300;9.182;2022-09-27T19:16:29;9.70;99.90
4183;DHT22;2105;52.300;9.182;2022-09-27T19:18:58;9.70;99.90
4183;DHT22;2105;52.300;9.182;2022-09-27T19:21:25;9.80;99.90
4183;DHT22;2105;52.300;9.182;2022-09-27T19:23:52;9.70;99.90
4183;DHT22;2105;52.300;9.182;2022-09-27T19:26:21;9.70;99.90
4183;DHT22;2105;52.300;9.182;2022-09-27T19:28:48;9.70;99.90
4183;DHT22;2105;52.300;9.182;2022-09-27T19:31:17;9.80;99.90
4183;DHT22;2105;52.300;9.182;2022-09-27T19:33:44;9.80;99.90
4183;DHT22;2105;52.300;9.182;2022-09-27T19:36:13;9.80;99.90
4183;DHT22;2105;52.300;9.182;2022-09-27T19:38:40;9.80;99.90
4183;DHT22;2105;52.300;9.182;2022-09-27T19:41:08;9.80;99.90
4183;DHT22;2105;52.300;9.182;2022-09-27T19:43:36;9.80;99.90
4183;DHT22;2105;52.300;9.182;2022-09-27T19:46:03;9.80;99.90
4183;DHT22;2105;52.300;9.182;2022-09-27T19:48:30;9.70;99.90
4183;DHT22;2105;52.300;9.182;2022-09-27T19:50:57;9.70;99.90
4183;DHT22;2105;52.300;9.182;2022-09-27T19:53:27;9.60;99.90
4183;DHT22;2105;52.300;9.182;2022-09-27T19:55:55;9.60;99.90
4183;DHT22;2105;52.300;9.182;2022-09-27T19:58:23;9.60;99.90
4183;DHT22;2105;52.300;9.182;2022-09-27T20:00:56;9.60;99.90
4183;DHT22;2105;52.300;9.182;2022-09-27T20:03:23;9.60;99.90
4183;DHT22;2105;52.300;9.182;2022-09-27T20:05:54;9.60;99.90
4183;DHT22;2105;52.300;9.182;2022-09-27T20:08:21;9.60;99.90
4183;DHT22;2105;52.300;9.182;2022-09-27T20:10:56;9.60;99.90
4183;DHT22;2105;52.300;9.182;2022-09-27T20:13:25;9.60;99.90
4183;DHT22;2105;52.300;9.182;2022-09-27T20:15:52;9.60;99.90
4183;DHT22;2105;52.300;9.182;2022-09-27T20:18:19;9.60;99.90
4183;DHT22;2105;52.300;9.182;2022-09-27T20:20:46;9.60;99.90
4183;DHT22;2105;52.300;9.182;2022-09-27T20:23:13;9.60;99.90
4183;DHT22;2105;52.300;9.182;2022-09-27T20:25:44;9.60;99.90
4183;DHT22;2105;52.300;9.182;2022-09-27T20:28:12;9.50;99.90
4183;DHT22;2105;52.300;9.182;2022-09-27T20:30:39;9.50;99.90
4183;DHT22;2105;52.300;9.182;2022-09-27T20:33:06;9.40;99.90
4183;DHT22;2105;52.300;9.182;2022-09-27T20:35:50;9.40;99.90
4183;DHT22;2105;52.300;9.182;2022-09-27T20:38:17;9.40;99.90
4183;DHT22;2105;52.300;9.182;2022-09-27T20:40:51;9.30;99.90
4183;DHT22;2105;52.300;9.182;2022-09-27T20:43:19;9.30;99.90
4183;DHT22;2105;52.300;9.182;2022-09-27T20:45:46;9.30;99.90
4183;DHT22;2105;52.300;9.182;2022-09-27T20:48:13;9.30;99.90
4183;DHT22;2105;52.300;9.182;2022-09-27T20:50:39;9.20;99.90
4183;DHT22;2105;52.300;9.182;2022-09-27T20:53:06;9.20;99.90
4183;DHT22;2105;52.300;9.182;2022-09-27T20:55:33;9.20;99.90
4183;DHT22;2105;52.300;9.182;2022-09-27T20:57:59;9.20;99.90
4183;DHT22;2105;52.300;9.182;2022-09-27T21:00:27;9.20;99.90
4183;DHT22;2105;52.300;9.182;2022-09-27T21:02:54;9.10;99.90
4183;DHT22;2105;52.300;9.182;2022-09-27T21:05:20;9.10;99.90
4183;DHT22;2105;52.300;9.182;2022-09-27T21:07:51;9.10;99.90
4183;DHT22;2105;52.300;9.182;2022-09-27T21:10:19;9.10;99.90
4183;DHT22;2105;52.300;9.182;2022-09-27T21:12:45;9.10;99.90
4183;DHT22;2105;52.300;9.182;2022-09-27T21:15:12;9.00;99.90
4183;DHT22;2105;52.300;9.182;2022-09-27T21:17:40;9.10;99.90
4183;DHT22;2105;52.300;9.182;2022-09-27T21:20:07;9.10;99.90
4183;DHT22;2105;52.300;9.182;2022-09-27T21:22:34;9.10;99.90
4183;DHT22;2105;52.300;9.182;2022-09-27T21:25:02;9.00;99.90
4183;DHT22;2105;52.300;9.182;2022-09-27T21:27:29;9.00;99.90
4183;DHT22;2105;52.300;9.182;2022-09-27T21:29:55;9.00;99.90
